METAR Data
IDs: Format: Raw Decoded Include TAF

Data at: 2106 UTC 24 Mar 2019

KSNK 242055Z AUTO 28008KT 10SM CLR 26/04 A3001 RMK AO2 T02550042
KSNK 242035Z AUTO 23007G15KT 210V270 10SM CLR 25/05 A3002 RMK AO2 T02540051
KSNK 242015Z AUTO 23008KT 10SM CLR 25/05 A3002 RMK AO2 T02500050
KSNK 241955Z AUTO 21008G16KT 10SM CLR 25/06 A3003 RMK AO2 T02450057
KSNK 241935Z AUTO 24009G15KT 10SM CLR 24/07 A3004 RMK AO2 T02420067
KSNK 241915Z AUTO 24013G17KT 10SM CLR 24/07 A3005 RMK AO2 T02390070
KSNK 241855Z AUTO 25011G15KT 10SM CLR 23/10 A3006 RMK AO2 T02290096
KSNK 241835Z AUTO 22011KT 10SM CLR 22/11 A3006 RMK AO2 T02210108
KSNK 241815Z AUTO 24007KT 10SM CLR 22/12 A3007 RMK AO2 T02170116
KSNK 241755Z AUTO 24009KT 10SM CLR 20/13 A3007 RMK AO2 T02040131
KSNK 241735Z AUTO 24008KT 10SM CLR 20/14 A3008 RMK AO2 T01980137
KSNK 241715Z AUTO 23010KT 10SM CLR 19/14 A3009 RMK AO2 T01930136
KSNK 241655Z AUTO 24011G16KT 10SM SCT016 18/14 A3009 RMK AO2 T01800135
KSNK 241635Z AUTO 25009KT 10SM BKN014 17/13 A3010 RMK AO2 T01670132
KSNK 241615Z AUTO 24008KT 10SM OVC012 16/13 A3010 RMK AO2 T01570131
KSNK 241555Z AUTO 27009KT 7SM OVC012 15/13 A3010 RMK AO2 T01530130
KSNK 241535Z AUTO 26010KT 10SM OVC010 15/13 A3010 RMK AO2 T01500130
KSNK 241515Z AUTO 26010KT 10SM OVC008 15/13 A3009 RMK AO2 T01480132
KSNK 241455Z AUTO 25009KT 10SM OVC008 15/13 A3008 RMK AO2 T01450132
KSNK 241435Z AUTO 25005KT 10SM OVC008 13/12 A3008 RMK AO2 T01340117
KSNK 241415Z AUTO 25004KT 10SM OVC008 13/11 A3007 RMK AO2 T01290110
KSNK 241355Z AUTO 21006KT 10SM OVC008 13/10 A3006 RMK AO2 T01260104
KSNK 241335Z AUTO 21005KT 10SM OVC008 12/10 A3006 RMK AO2 T01210096
KSNK 241315Z AUTO 00000KT 10SM OVC008 11/09 A3005 RMK AO2 T01140088
KSNK 241255Z AUTO 00000KT 10SM OVC008 11/08 A3005 RMK AO2 T01070081
KSNK 241235Z AUTO 00000KT 10SM OVC008 11/09 A3004 RMK AO2 T01090085
KSNK 241215Z AUTO 18004KT 10SM OVC010 11/09 A3002 RMK AO2 T01100086
KSNK 241155Z AUTO 17006KT 10SM BKN012 10/07 A3002 RMK AO2 T00990066
KSNK 241135Z AUTO 15007KT 10SM SCT014 09/05 A3002 RMK AO2 T00930047
KSNK 241115Z AUTO 17004KT 10SM CLR 10/04 A3002 RMK AO2 T00970041
KSNK 241055Z AUTO 16004KT 10SM CLR 10/04 A3002 RMK AO2 T00960037
KSNK 241035Z AUTO 17005KT 10SM CLR 10/03 A3001 RMK AO2 T00980028
KSNK 241015Z AUTO 19004KT 10SM CLR 10/02 A3001 RMK AO2 T00970022
KSNK 240955Z AUTO 19005KT 10SM CLR 10/02 A3001 RMK AO2 T00980020
KSNK 240935Z AUTO 18005KT 10SM CLR 11/03 A3001 RMK AO2 T01050025
KSNK 240915Z AUTO 18007KT 10SM CLR 11/03 A3001 RMK AO2 T01110031
KSNK 240855Z AUTO 18007KT 10SM CLR 11/02 A3001 RMK AO2 T01060024
KSNK 240835Z AUTO 19007KT 10SM CLR 11/02 A3001 RMK AO2 T01060017
KSNK 240815Z AUTO 18007KT 10SM CLR 11/01 A3001 RMK AO2 T01120013
KSNK 240755Z AUTO 17008KT 10SM CLR 12/01 A3001 RMK AO2 T01170011
KSNK 240735Z AUTO 16009KT 10SM CLR 12/01 A3001 RMK AO2 T01180010
KSNK 240715Z AUTO 17008KT 10SM CLR 12/01 A3001 RMK AO2 T01160008
KSNK 240655Z AUTO 19007KT 10SM CLR 13/00 A3001 RMK AO2 T01290003
KSNK 240635Z AUTO 19005KT 10SM CLR 14/00 A3001 RMK AO2 T01380002
KSNK 240615Z AUTO 19005KT 10SM CLR 14/00 A3001 RMK AO2 T01420002
KSNK 240555Z AUTO 19005KT 10SM CLR 14/00 A3001 RMK AO2 T01440002
KSNK 240535Z AUTO 18005KT 10SM CLR 15/00 A3001 RMK AO2 T01450002
KSNK 240515Z AUTO 17006KT 10SM CLR 15/00 A3002 RMK AO2 T01470002
KSNK 240455Z AUTO 17006KT 10SM CLR 15/00 A3002 RMK AO2 T01520002
KSNK 240435Z AUTO 17006KT 10SM CLR 16/00 A3001 RMK AO2 T01560004
KSNK 240415Z AUTO 18005KT 10SM CLR 16/01 A3002 RMK AO2 T01580005
KSNK 240355Z AUTO 19004KT 10SM CLR 16/01 A3002 RMK AO2 T01600005
KSNK 240335Z AUTO 19005KT 10SM CLR 16/01 A3002 RMK AO2 T01640005
KSNK 240315Z AUTO 17006KT 10SM CLR 16/01 A3000 RMK AO2 T01640007
KSNK 240255Z AUTO 19005KT 10SM CLR 17/01 A3000 RMK AO2 T01680006
KSNK 240235Z AUTO 17005KT 10SM CLR 17/01 A2999 RMK AO2 T01730007
KSNK 240215Z AUTO 17008KT 10SM CLR 18/01 A2998 RMK AO2 T01750011
KSNK 240155Z AUTO 17007KT 10SM CLR 18/01 A2997 RMK AO2 T01780011
KSNK 240135Z AUTO 16007KT 10SM CLR 19/01 A2997 RMK AO2 T01870005
KSNK 240115Z AUTO 17007KT 10SM CLR 20/00 A2996 RMK AO2 T01951003
KSNK 240055Z AUTO 18006KT 10SM CLR 21/M01 A2996 RMK AO2 T02071009
KSNK 240035Z AUTO 18007KT 10SM CLR 22/M01 A2996 RMK AO2 T02151013
KSNK 240015Z AUTO 21008KT 10SM CLR 22/M02 A2996 RMK AO2 T02231023
KSNK 232355Z AUTO 22006KT 10SM CLR 23/M03 A2996 RMK AO2 T02271029
KSNK 232335Z AUTO 24012G15KT 10SM CLR 23/M03 A2997 RMK AO2 T02331029
KSNK 232315Z AUTO 24013G16KT 10SM CLR 24/M04 A2997 RMK AO2 T02351036
KSNK 232255Z AUTO 24014G17KT 10SM CLR 24/M03 A2996 RMK AO2 T02371033
KSNK 232235Z AUTO 23015G20KT 10SM CLR 24/M03 A2996 RMK AO2 T02411026
KSNK 232215Z AUTO 22011G16KT 10SM CLR 24/M03 A2997 RMK AO2 T02351027
KSNK 232155Z AUTO 24009G15KT 10SM CLR 23/M02 A2998 RMK AO2 T02321025
KSNK 232130Z AUTO 22008G13KT 10SM CLR 23/M03 A2998 RMK AO2 T02271026
KSNK 232115Z AUTO 23012KT 10SM CLR 23/M02 A2998 RMK AO2 T02281025
KSNK 232055Z AUTO 23009G18KT 10SM CLR 23/M03 A2998 RMK AO2 T02311027
KSNK 232035Z AUTO 24010G17KT 10SM CLR 23/M03 A2999 RMK AO2 LTG DSNT E T02301027
KSNK 232015Z AUTO 23011G15KT 10SM CLR 23/M02 A2999 RMK AO2 T02271024
KSNK 231955Z AUTO 24010G14KT 10SM CLR 22/M02 A2999 RMK AO2 T02221017
KSNK 231935Z AUTO 26011G15KT 10SM CLR 22/M01 A3000 RMK AO2 T02181013
KSNK 231915Z AUTO 27007KT 10SM CLR 22/M02 A3000 RMK AO2 T02171018
KSNK 231855Z AUTO 24005KT 10SM CLR 22/M01 A3001 RMK AO2 T02171012
KSNK 231835Z AUTO 26009KT 10SM CLR 21/00 A3002 RMK AO2 T02110000
KSNK 231815Z AUTO 26008KT 10SM CLR 21/01 A3003 RMK AO2 T02060008
KSNK 231755Z AUTO 25010G14KT 10SM CLR 20/01 A3003 RMK AO2 T02020012
KSNK 231735Z AUTO 30009KT 10SM CLR 20/03 A3004 RMK AO2 T01950033
KSNK 231715Z AUTO 27007KT 10SM CLR 19/05 A3005 RMK AO2 T01890046
KSNK 231655Z AUTO 27006KT 10SM CLR 18/07 A3005 RMK AO2 T01800068
KSNK 231635Z AUTO 27004KT 10SM CLR 17/08 A3005 RMK AO2 LTG DSNT E T01730077
KSNK 231615Z AUTO 27007KT 10SM CLR 17/09 A3005 RMK AO2 T01660089
KSNK 231555Z AUTO 24006KT 10SM CLR 16/11 A3005 RMK AO2 LTG DSNT E T01610109
KSNK 231535Z AUTO 24008KT 10SM SCT011 16/12 A3005 RMK AO2 T01550123
KSNK 231515Z AUTO 23010KT 10SM SCT011 15/13 A3006 RMK AO2 LTG DSNT E T01520125
KSNK 231455Z AUTO 24011KT 10SM CLR 15/13 A3005 RMK AO2 LTG DSNT E T01460126
KSNK 231435Z AUTO 23009KT 7SM SCT013 BKN019 14/13 A3004 RMK AO2 LTG DSNT E T01440130
KSNK 231415Z AUTO 24008KT 7SM BKN013 OVC019 14/13 A3004 RMK AO2 LTG DSNT E T01410131
KSNK 231355Z AUTO 24006KT 10SM BKN019 BKN025 OVC039 13/13 A3003 RMK AO2 T01340130
KSNK 231335Z AUTO 22004KT 10SM SCT015 SCT024 BKN039 13/13 A3002 RMK AO2 T01270126
KSNK 231315Z AUTO 23003KT 10SM OVC015 13/13 A3002 RMK AO2 T01270127
KSNK 231255Z AUTO 23004KT 10SM OVC013 13/13 A3002 RMK AO2 T01250125
KSNK 231235Z AUTO 25005KT 10SM OVC013 12/12 A3001 RMK AO2 T01240124
KSNK 231215Z AUTO 25005KT 10SM OVC015 12/12 A3000 RMK AO2 T01220122
KSNK 231155Z AUTO 21005KT 10SM OVC017 12/12 A2999 RMK AO2 T01190119
KSNK 231135Z AUTO 20005KT 10SM BKN019 12/12 A2998 RMK AO2 T01180118
KSNK 231115Z AUTO 20004KT 10SM BKN021 12/12 A2998 RMK AO2 LTG DSNT E T01240122
KSNK 231055Z AUTO 18006KT 10SM BKN021 13/12 A2997 RMK AO2 T01280124
KSNK 231035Z AUTO 18009KT 10SM BKN021 13/12 A2996 RMK AO2 T01260123
KSNK 231015Z AUTO 18007KT 10SM BKN021 13/12 A2996 RMK AO2 T01250122
KSNK 230955Z AUTO 18006KT 10SM BKN021 12/12 A2997 RMK AO2 T01170116
KSNK 230935Z AUTO 20004KT 10SM SCT021 12/12 A2997 RMK AO2 T01170115
KSNK 230915Z AUTO 19005KT 10SM CLR 12/12 A2997 RMK AO2 T01190115